createdAt,value
2023-01-12T00:00:33.971Z,2.10
2023-01-12T00:01:33.964Z,2.00
2023-01-12T00:02:33.975Z,2.00
2023-01-12T00:03:33.920Z,2.20
2023-01-12T00:04:33.998Z,1.90
2023-01-12T00:05:33.904Z,2.60
2023-01-12T00:06:33.884Z,1.70
2023-01-12T00:07:33.863Z,2.10
2023-01-12T00:08:33.876Z,2.20
2023-01-12T00:09:33.853Z,2.20
2023-01-12T00:10:33.841Z,2.40
2023-01-12T00:11:33.835Z,2.00
2023-01-12T00:12:33.807Z,2.40
2023-01-12T00:13:33.813Z,2.20
2023-01-12T00:14:33.791Z,2.40
2023-01-12T00:15:33.782Z,2.10
2023-01-12T00:16:33.789Z,2.00
2023-01-12T00:17:33.757Z,2.10
2023-01-12T00:18:33.752Z,2.00
2023-01-12T00:19:33.750Z,2.40
2023-01-12T00:20:33.722Z,2.50
2023-01-12T00:21:33.733Z,2.10
2023-01-12T00:22:33.707Z,1.80
2023-01-12T00:23:33.698Z,1.80
2023-01-12T00:24:33.897Z,1.80
2023-01-12T00:25:33.677Z,2.10
2023-01-12T00:26:33.681Z,2.00
2023-01-12T00:27:33.656Z,2.10
2023-01-12T00:28:33.653Z,2.00
2023-01-12T00:29:33.649Z,2.20
2023-01-12T00:30:33.621Z,2.20
2023-01-12T00:31:33.700Z,2.20
2023-01-12T00:32:33.600Z,2.10
2023-01-12T00:33:33.602Z,2.10
2023-01-12T00:34:33.576Z,2.00
2023-01-12T00:35:33.581Z,1.90
2023-01-12T00:36:33.597Z,2.00
2023-01-12T00:37:33.568Z,1.90
2023-01-12T00:38:33.539Z,2.30
2023-01-12T00:39:33.540Z,2.30
2023-01-12T00:40:33.514Z,2.00
2023-01-12T00:41:33.533Z,1.90
2023-01-12T00:42:33.500Z,2.00
2023-01-12T00:43:33.510Z,1.90
2023-01-12T00:44:33.481Z,1.50
2023-01-12T00:45:33.473Z,2.10
2023-01-12T00:46:33.479Z,1.70
2023-01-12T00:47:33.451Z,1.80
2023-01-12T00:48:33.443Z,1.80
2023-01-12T00:49:33.449Z,1.90
2023-01-12T00:50:33.431Z,1.80
2023-01-12T00:51:33.426Z,1.90
2023-01-12T00:52:33.414Z,1.90
2023-01-12T00:53:33.396Z,2.00
2023-01-12T00:54:33.405Z,1.60
2023-01-12T00:55:33.369Z,1.30
2023-01-12T00:56:33.370Z,1.70
2023-01-12T00:57:33.368Z,1.70
2023-01-12T00:58:33.332Z,1.50
2023-01-12T00:59:33.323Z,2.10
2023-01-12T01:00:33.312Z,1.80
2023-01-12T01:01:33.379Z,1.50
2023-01-12T01:02:33.306Z,1.70
2023-01-12T01:03:33.289Z,1.50
2023-01-12T01:04:33.284Z,1.60
2023-01-12T01:05:33.263Z,1.90
2023-01-12T01:06:33.262Z,1.60
2023-01-12T01:07:33.261Z,1.40
2023-01-12T01:08:33.236Z,1.70
2023-01-12T01:09:33.224Z,1.60
2023-01-12T01:10:33.213Z,1.80
2023-01-12T01:11:33.266Z,1.70
2023-01-12T01:12:33.251Z,1.50
2023-01-12T01:13:33.187Z,1.90
2023-01-12T01:14:33.185Z,1.80
2023-01-12T01:15:33.219Z,1.70
2023-01-12T01:16:33.174Z,1.70
2023-01-12T01:17:33.138Z,1.60
2023-01-12T01:18:33.131Z,1.90
2023-01-12T01:19:33.124Z,1.40
2023-01-12T01:20:33.123Z,1.60
2023-01-12T01:21:33.111Z,1.50
2023-01-12T01:22:33.101Z,1.70
2023-01-12T01:23:33.071Z,1.60
2023-01-12T01:24:33.079Z,1.40
2023-01-12T01:25:33.053Z,1.30
2023-01-12T01:26:33.081Z,1.80
2023-01-12T01:27:33.060Z,1.40
2023-01-12T01:28:33.040Z,1.40
2023-01-12T01:29:33.017Z,1.60
2023-01-12T01:30:33.026Z,1.30
2023-01-12T01:31:33.093Z,1.40
2023-01-12T01:32:33.012Z,1.30
2023-01-12T01:33:33.032Z,1.30
2023-01-12T01:34:33.006Z,1.40
2023-01-12T01:35:32.951Z,1.20
2023-01-12T01:36:32.967Z,1.20
2023-01-12T01:37:32.950Z,1.50
2023-01-12T01:38:32.942Z,1.30
2023-01-12T01:39:32.923Z,1.40
2023-01-12T01:40:32.909Z,1.30
2023-01-12T01:41:32.900Z,1.20
2023-01-12T01:42:32.907Z,1.20
2023-01-12T01:43:32.873Z,1.20
2023-01-12T01:44:32.878Z,1.20
2023-01-12T01:45:32.852Z,1.20
2023-01-12T01:46:32.954Z,1.30
2023-01-12T01:47:32.834Z,1.30
2023-01-12T01:48:32.831Z,1.50
2023-01-12T01:49:32.805Z,1.10
2023-01-12T01:50:32.847Z,1.50
2023-01-12T01:51:32.803Z,1.00
2023-01-12T01:52:32.803Z,1.50
2023-01-12T01:53:32.769Z,1.30
2023-01-12T01:54:32.757Z,0.90
2023-01-12T01:55:32.768Z,1.20
2023-01-12T01:56:32.769Z,1.00
2023-01-12T01:57:32.766Z,1.20
2023-01-12T01:58:32.726Z,1.00
2023-01-12T01:59:32.722Z,1.20
2023-01-12T02:00:32.703Z,1.10
2023-01-12T02:01:32.855Z,1.10
2023-01-12T02:02:32.708Z,1.30
2023-01-12T02:03:36.688Z,1.10
2023-01-12T02:04:32.655Z,1.70
2023-01-12T02:05:32.636Z,1.50
2023-01-12T02:06:32.637Z,1.10
2023-01-12T02:07:32.645Z,1.10
2023-01-12T02:08:32.608Z,1.00
2023-01-12T02:09:32.590Z,1.10
2023-01-12T02:10:32.615Z,1.30
2023-01-12T02:11:32.575Z,0.90
2023-01-12T02:12:32.591Z,1.50
2023-01-12T02:13:32.562Z,1.30
2023-01-12T02:14:32.552Z,1.30
2023-01-12T02:15:32.532Z,1.20
2023-01-12T02:16:32.532Z,1.10
2023-01-12T02:17:32.553Z,1.20
2023-01-12T02:18:32.501Z,1.10
2023-01-12T02:19:32.493Z,1.20
2023-01-12T02:20:32.498Z,1.20
2023-01-12T02:21:32.471Z,1.90
2023-01-12T02:22:32.489Z,1.20
2023-01-12T02:23:32.456Z,1.00
2023-01-12T02:24:32.449Z,1.30
2023-01-12T02:25:32.443Z,1.10
2023-01-12T02:26:32.432Z,1.20
2023-01-12T02:27:32.448Z,0.90
2023-01-12T02:28:32.406Z,1.20
2023-01-12T02:29:32.391Z,0.90
2023-01-12T02:30:32.380Z,1.00
2023-01-12T02:31:32.432Z,1.10
2023-01-12T02:32:32.383Z,1.10
2023-01-12T02:33:32.372Z,1.00
2023-01-12T02:34:32.343Z,1.10
2023-01-12T02:35:32.330Z,1.00
2023-01-12T02:36:32.322Z,1.40
2023-01-12T02:37:32.315Z,1.50
2023-01-12T02:38:32.296Z,1.20
2023-01-12T02:39:32.283Z,0.80
2023-01-12T02:40:32.275Z,1.40
2023-01-12T02:41:32.256Z,0.90
2023-01-12T02:42:32.268Z,1.80
2023-01-12T02:43:32.249Z,1.10
2023-01-12T02:44:32.236Z,1.30
2023-01-12T02:45:32.226Z,0.90
2023-01-12T02:46:32.313Z,1.10
2023-01-12T02:47:32.200Z,1.20
2023-01-12T02:48:32.210Z,1.00
2023-01-12T02:49:32.178Z,1.30
2023-01-12T02:50:32.173Z,1.30
2023-01-12T02:51:32.273Z,1.30
2023-01-12T02:52:32.148Z,1.10
2023-01-12T02:53:32.156Z,1.00
2023-01-12T02:54:32.130Z,1.10
2023-01-12T02:55:32.185Z,1.10
2023-01-12T02:56:32.104Z,1.00
2023-01-12T02:57:32.109Z,1.00
2023-01-12T02:58:32.139Z,1.00
2023-01-12T02:59:32.076Z,1.10
2023-01-12T03:00:32.126Z,1.10
2023-01-12T03:01:32.129Z,1.10
2023-01-12T03:02:32.057Z,1.10
2023-01-12T03:03:32.063Z,1.10
2023-01-12T03:04:32.056Z,1.20
2023-01-12T03:05:32.019Z,1.00
2023-01-12T03:06:32.005Z,1.10
2023-01-12T03:07:31.997Z,1.40
2023-01-12T03:08:32.018Z,1.20
2023-01-12T03:09:31.975Z,1.00
2023-01-12T03:10:31.970Z,1.00
2023-01-12T03:11:31.971Z,1.20
2023-01-12T03:12:31.939Z,0.80
2023-01-12T03:13:31.956Z,1.10
2023-01-12T03:14:31.949Z,0.90
2023-01-12T03:15:31.910Z,1.40
2023-01-12T03:16:32.059Z,0.90
2023-01-12T03:17:31.890Z,0.90
2023-01-12T03:18:31.938Z,1.20
2023-01-12T03:19:31.869Z,1.20
2023-01-12T03:20:31.869Z,0.90
2023-01-12T03:21:31.845Z,0.90
2023-01-12T03:22:31.839Z,1.00
2023-01-12T03:23:31.861Z,0.90
2023-01-12T03:24:31.830Z,1.00
2023-01-12T03:25:31.805Z,0.90
2023-01-12T03:26:31.804Z,1.10
2023-01-12T03:27:31.790Z,1.00
2023-01-12T03:28:31.813Z,0.90
2023-01-12T03:29:31.774Z,0.90
2023-01-12T03:30:31.759Z,0.90
2023-01-12T03:31:31.760Z,0.70
2023-01-12T03:32:31.749Z,0.80
2023-01-12T03:33:31.759Z,1.00
2023-01-12T03:34:31.723Z,0.90
2023-01-12T03:35:31.702Z,1.10
2023-01-12T03:36:31.695Z,1.10
2023-01-12T03:37:31.698Z,1.30
2023-01-12T03:38:31.692Z,1.10
2023-01-12T03:39:31.673Z,1.50
2023-01-12T03:40:31.660Z,1.00
2023-01-12T03:41:31.642Z,1.20
2023-01-12T03:42:31.631Z,1.20
2023-01-12T03:43:31.661Z,0.90
2023-01-12T03:44:31.613Z,1.10
2023-01-12T03:45:31.619Z,1.00
2023-01-12T03:46:31.684Z,1.10
2023-01-12T03:47:31.599Z,0.90
2023-01-12T03:48:31.604Z,1.10
2023-01-12T03:49:31.561Z,1.10
2023-01-12T03:50:31.568Z,0.90
2023-01-12T03:51:31.541Z,1.30
2023-01-12T03:52:31.548Z,1.30
2023-01-12T03:53:31.546Z,1.00
2023-01-12T03:54:31.518Z,1.00
2023-01-12T03:55:31.506Z,0.80
2023-01-12T03:56:31.500Z,1.20
2023-01-12T03:57:31.474Z,1.00
2023-01-12T03:58:31.515Z,0.90
2023-01-12T03:59:31.467Z,0.80
2023-01-12T04:00:31.449Z,0.90
2023-01-12T04:01:31.543Z,0.80
2023-01-12T04:02:31.430Z,0.90
2023-01-12T04:03:31.441Z,1.00
2023-01-12T04:04:31.427Z,1.10
2023-01-12T04:05:31.393Z,0.90
2023-01-12T04:06:31.414Z,1.00
2023-01-12T04:07:31.396Z,1.00
2023-01-12T04:08:31.387Z,1.00
2023-01-12T04:09:31.368Z,1.10
2023-01-12T04:10:31.379Z,0.90
2023-01-12T04:11:31.352Z,1.20
2023-01-12T04:12:31.365Z,0.90
2023-01-12T04:13:31.310Z,1.20
2023-01-12T04:14:31.330Z,0.80
2023-01-12T04:15:31.302Z,1.20
2023-01-12T04:16:31.376Z,0.90
2023-01-12T04:17:31.278Z,1.20
2023-01-12T04:18:31.276Z,1.00
2023-01-12T04:19:31.264Z,1.00
2023-01-12T04:20:31.257Z,1.00
2023-01-12T04:21:31.231Z,1.00
2023-01-12T04:22:31.236Z,0.80
2023-01-12T04:23:31.240Z,1.00
2023-01-12T04:24:31.205Z,0.90
2023-01-12T04:25:31.197Z,1.10
2023-01-12T04:26:31.185Z,0.80
2023-01-12T04:27:31.175Z,0.90
2023-01-12T04:28:31.177Z,1.10
2023-01-12T04:29:31.144Z,1.10
2023-01-12T04:30:31.154Z,1.40
2023-01-12T04:31:31.152Z,1.00
2023-01-12T04:32:31.138Z,0.90
2023-01-12T04:33:31.128Z,1.00
2023-01-12T04:34:31.124Z,0.70
2023-01-12T04:35:31.091Z,1.30
2023-01-12T04:36:31.079Z,1.00
2023-01-12T04:37:31.068Z,0.70
2023-01-12T04:38:31.133Z,0.80
2023-01-12T04:39:31.052Z,1.30
2023-01-12T04:40:31.046Z,1.00
2023-01-12T04:41:31.028Z,0.90
2023-01-12T04:42:31.020Z,1.10
2023-01-12T04:43:31.029Z,0.80
2023-01-12T04:44:31.009Z,1.10
2023-01-12T04:45:31.078Z,0.80
2023-01-12T04:46:30.983Z,0.90
2023-01-12T04:47:30.966Z,1.10
2023-01-12T04:48:30.977Z,0.80
2023-01-12T04:49:30.963Z,1.20
2023-01-12T04:50:30.949Z,0.90
2023-01-12T04:51:30.943Z,0.80
2023-01-12T04:52:30.930Z,1.20
2023-01-12T04:53:31.383Z,0.80
2023-01-12T04:54:30.900Z,1.00
2023-01-12T04:55:30.889Z,1.00
2023-01-12T04:56:30.883Z,0.80
2023-01-12T04:57:30.876Z,1.60
2023-01-12T04:58:30.880Z,1.00
2023-01-12T04:59:30.874Z,1.10
2023-01-12T05:00:30.862Z,0.80
2023-01-12T05:01:30.972Z,1.60
2023-01-12T05:02:30.816Z,1.20
2023-01-12T05:03:30.840Z,1.20
2023-01-12T05:04:30.850Z,1.10
2023-01-12T05:05:30.782Z,1.10
2023-01-12T05:06:30.787Z,0.80
2023-01-12T05:07:30.759Z,0.80
2023-01-12T05:08:30.763Z,1.40
2023-01-12T05:09:30.761Z,1.00
2023-01-12T05:10:30.736Z,1.00
2023-01-12T05:11:30.717Z,0.90
2023-01-12T05:12:30.724Z,1.00
2023-01-12T05:13:30.747Z,1.10
2023-01-12T05:14:30.704Z,0.90
2023-01-12T05:15:30.704Z,0.90
2023-01-12T05:16:30.723Z,1.00
2023-01-12T05:17:30.676Z,1.00
2023-01-12T05:18:30.674Z,0.80
2023-01-12T05:19:30.656Z,0.70
2023-01-12T05:20:30.650Z,0.80
2023-01-12T05:21:32.805Z,0.70
2023-01-12T05:22:30.620Z,1.00
2023-01-12T05:23:30.613Z,1.00
2023-01-12T05:24:30.619Z,1.20
2023-01-12T05:25:30.614Z,0.90
2023-01-12T05:26:30.573Z,0.80
2023-01-12T05:27:30.594Z,0.80
2023-01-12T05:28:30.567Z,1.00
2023-01-12T05:29:30.552Z,1.10
2023-01-12T05:30:31.893Z,0.90
2023-01-12T05:31:30.542Z,0.90
2023-01-12T05:32:30.519Z,0.80
2023-01-12T05:33:30.521Z,0.80
2023-01-12T05:34:30.501Z,0.60
2023-01-12T05:35:30.499Z,0.90
2023-01-12T05:36:30.485Z,0.90
2023-01-12T05:37:30.457Z,1.10
2023-01-12T05:38:30.505Z,0.70
2023-01-12T05:39:30.447Z,0.80
2023-01-12T05:40:30.491Z,1.00
2023-01-12T05:41:30.428Z,0.90
2023-01-12T05:42:30.434Z,0.70
2023-01-12T05:43:30.429Z,0.80
2023-01-12T05:44:30.385Z,1.10
2023-01-12T05:45:30.390Z,1.30
2023-01-12T05:46:30.375Z,1.40
2023-01-12T05:47:30.364Z,1.00
2023-01-12T05:48:30.356Z,0.80
2023-01-12T05:49:30.341Z,1.10
2023-01-12T05:50:30.356Z,0.70
2023-01-12T05:51:30.333Z,1.00
2023-01-12T05:52:30.314Z,0.80
2023-01-12T05:53:30.305Z,0.90
2023-01-12T05:54:30.312Z,0.80
2023-01-12T05:55:30.274Z,0.80
2023-01-12T05:56:30.278Z,1.20
2023-01-12T05:57:30.253Z,1.10
2023-01-12T05:58:30.264Z,1.20
2023-01-12T05:59:30.284Z,1.00
2023-01-12T06:00:30.229Z,0.70
2023-01-12T06:01:30.316Z,1.00
2023-01-12T06:02:30.303Z,1.00
2023-01-12T06:03:30.229Z,1.40
2023-01-12T06:04:30.206Z,0.90
2023-01-12T06:05:30.177Z,0.70
2023-01-12T06:06:30.181Z,0.90
2023-01-12T06:07:30.163Z,1.00
2023-01-12T06:08:30.153Z,0.80
2023-01-12T06:09:30.148Z,0.70
2023-01-12T06:10:30.134Z,0.70
2023-01-12T06:11:30.152Z,0.80
2023-01-12T06:12:30.101Z,1.10
2023-01-12T06:13:30.100Z,0.70
2023-01-12T06:14:30.078Z,0.70
2023-01-12T06:15:30.069Z,0.90
2023-01-12T06:16:30.081Z,0.90
2023-01-12T06:17:30.087Z,0.80
2023-01-12T06:18:30.042Z,0.80
2023-01-12T06:19:30.064Z,0.70
2023-01-12T06:20:37.103Z,1.10
2023-01-12T06:21:30.048Z,0.80
2023-01-12T06:22:30.019Z,1.00
2023-01-12T06:23:35.354Z,0.90
2023-01-12T06:24:30.014Z,1.00
2023-01-12T06:25:29.990Z,1.10
2023-01-12T06:26:29.997Z,1.20
2023-01-12T06:27:29.958Z,0.90
2023-01-12T06:28:29.946Z,0.60
2023-01-12T06:29:29.983Z,0.80
2023-01-12T06:30:30.126Z,1.10
2023-01-12T06:31:30.020Z,0.80
2023-01-12T06:32:32.158Z,0.90
2023-01-12T06:33:30.061Z,0.90
2023-01-12T06:34:30.245Z,1.00
2023-01-12T06:35:30.504Z,0.90
2023-01-12T06:36:30.050Z,0.80
2023-01-12T06:37:29.867Z,1.00
2023-01-12T06:38:30.139Z,1.10
2023-01-12T06:39:29.800Z,1.00
2023-01-12T06:40:29.796Z,0.90
2023-01-12T06:41:29.822Z,1.00
2023-01-12T06:42:29.828Z,1.10
2023-01-12T06:43:29.813Z,1.10
2023-01-12T06:44:29.759Z,0.70
2023-01-12T06:45:29.709Z,0.80
2023-01-12T06:46:29.752Z,0.80
2023-01-12T06:47:29.704Z,0.80
2023-01-12T06:48:39.175Z,1.00
2023-01-12T06:49:29.737Z,0.70
2023-01-12T06:50:29.666Z,0.90
2023-01-12T06:51:29.677Z,1.00
2023-01-12T06:52:29.644Z,0.70
2023-01-12T06:53:29.631Z,0.90
2023-01-12T06:54:29.636Z,1.10
2023-01-12T06:55:29.627Z,0.90
2023-01-12T06:56:29.625Z,1.20
2023-01-12T06:57:29.620Z,1.20
2023-01-12T06:58:29.607Z,1.00
2023-01-12T06:59:29.617Z,1.20
2023-01-12T07:00:29.595Z,1.00
2023-01-12T07:01:29.673Z,0.90
2023-01-12T07:02:29.550Z,0.70
2023-01-12T07:03:29.536Z,0.90
2023-01-12T07:04:29.605Z,0.80
2023-01-12T07:05:29.556Z,0.90
2023-01-12T07:06:29.512Z,1.00
2023-01-12T07:07:29.493Z,1.20
2023-01-12T07:08:29.477Z,1.00
2023-01-12T07:09:29.497Z,0.90
2023-01-12T07:10:29.469Z,1.30
2023-01-12T07:11:29.491Z,0.90
2023-01-12T07:12:29.433Z,1.00
2023-01-12T07:13:29.438Z,0.80
2023-01-12T07:14:29.954Z,0.70
2023-01-12T07:15:29.408Z,0.90
2023-01-12T07:16:29.391Z,0.60
2023-01-12T07:17:29.429Z,1.10
2023-01-12T07:18:29.401Z,1.20
2023-01-12T07:19:29.383Z,1.00
2023-01-12T07:20:29.505Z,0.70
2023-01-12T07:21:29.361Z,1.00
2023-01-12T07:22:29.342Z,1.20
2023-01-12T07:23:29.367Z,1.00
2023-01-12T07:24:29.371Z,1.10
2023-01-12T07:25:29.434Z,1.50
2023-01-12T07:26:29.296Z,0.90
2023-01-12T07:27:29.334Z,1.00
2023-01-12T07:28:29.279Z,1.00
2023-01-12T07:29:29.279Z,0.80
2023-01-12T07:30:29.382Z,1.10
2023-01-12T07:31:29.320Z,1.00
2023-01-12T07:32:29.245Z,1.00
2023-01-12T07:33:29.243Z,0.90
2023-01-12T07:34:29.256Z,1.20
2023-01-12T07:35:29.220Z,1.00
2023-01-12T07:36:29.197Z,0.90
2023-01-12T07:37:29.216Z,1.50
2023-01-12T07:38:29.182Z,1.00
2023-01-12T07:39:29.186Z,1.30
2023-01-12T07:40:29.211Z,1.20
2023-01-12T07:41:29.190Z,0.90
2023-01-12T07:42:29.147Z,1.10
2023-01-12T07:43:29.157Z,1.20
2023-01-12T07:44:29.158Z,0.70
2023-01-12T07:45:29.127Z,1.30
2023-01-12T07:46:29.262Z,0.70
2023-01-12T07:47:29.073Z,1.40
2023-01-12T07:48:29.080Z,0.90
2023-01-12T07:49:29.089Z,1.40
2023-01-12T07:50:29.149Z,0.90
2023-01-12T07:51:29.049Z,0.70
2023-01-12T07:52:29.046Z,1.00
2023-01-12T07:53:29.080Z,0.90
2023-01-12T07:54:29.040Z,1.00
2023-01-12T07:55:29.027Z,1.00
2023-01-12T07:56:29.002Z,1.00
2023-01-12T07:57:28.977Z,1.10
2023-01-12T07:58:29.003Z,1.30
2023-01-12T07:59:28.973Z,0.60
2023-01-12T08:00:29.087Z,1.00
2023-01-12T08:01:29.233Z,1.00
2023-01-12T08:02:28.943Z,1.10
2023-01-12T08:03:28.908Z,1.00
2023-01-12T08:04:28.919Z,1.10
2023-01-12T08:05:28.948Z,1.20
2023-01-12T08:06:28.952Z,0.80
2023-01-12T08:07:28.883Z,0.80
2023-01-12T08:08:28.908Z,1.00
2023-01-12T08:09:28.870Z,1.00
2023-01-12T08:10:28.870Z,1.10
2023-01-12T08:11:28.875Z,1.10
2023-01-12T08:12:28.817Z,1.10
2023-01-12T08:13:28.826Z,0.80
2023-01-12T08:14:28.849Z,1.00
2023-01-12T08:15:28.806Z,0.80
2023-01-12T08:16:28.840Z,1.10
2023-01-12T08:17:28.807Z,0.60
2023-01-12T08:18:28.904Z,0.70
2023-01-12T08:19:28.795Z,0.80
2023-01-12T08:20:28.742Z,1.10
2023-01-12T08:21:28.743Z,0.90
2023-01-12T08:22:28.739Z,0.70
2023-01-12T08:23:28.708Z,1.20
2023-01-12T08:24:28.717Z,0.90
2023-01-12T08:25:28.696Z,1.00
2023-01-12T08:26:28.688Z,0.90
2023-01-12T08:27:28.675Z,0.90
2023-01-12T08:28:28.653Z,1.00
2023-01-12T08:29:28.675Z,1.10
2023-01-12T08:30:28.726Z,1.10
2023-01-12T08:31:28.637Z,1.00
2023-01-12T08:32:28.629Z,0.70
2023-01-12T08:33:28.612Z,0.80
2023-01-12T08:34:28.606Z,0.70
2023-01-12T08:35:28.619Z,0.80
2023-01-12T08:36:28.581Z,0.70
2023-01-12T08:37:28.566Z,0.80
2023-01-12T08:38:28.567Z,0.90
2023-01-12T08:39:28.579Z,1.10
2023-01-12T08:40:28.529Z,1.20
2023-01-12T08:41:28.542Z,0.90
2023-01-12T08:42:31.547Z,0.90
2023-01-12T08:43:28.514Z,0.60
2023-01-12T08:44:28.528Z,1.10
2023-01-12T08:45:28.482Z,0.80
2023-01-12T08:46:28.506Z,0.80
2023-01-12T08:47:28.470Z,0.80
2023-01-12T08:48:28.464Z,0.90
2023-01-12T08:49:28.526Z,0.80
2023-01-12T08:50:28.456Z,0.80
2023-01-12T08:51:28.438Z,0.70
2023-01-12T08:52:28.454Z,0.70
2023-01-12T08:53:28.417Z,0.80
2023-01-12T08:54:28.387Z,0.80
2023-01-12T08:55:28.376Z,0.70
2023-01-12T08:56:28.588Z,0.80
2023-01-12T08:57:28.493Z,1.00
2023-01-12T08:58:28.364Z,0.90
2023-01-12T08:59:28.407Z,0.50
2023-01-12T09:00:28.352Z,0.80
2023-01-12T09:01:28.430Z,0.80
2023-01-12T09:02:28.394Z,0.70
2023-01-12T09:03:28.321Z,0.70
2023-01-12T09:04:28.313Z,1.20
2023-01-12T09:05:28.287Z,1.10
2023-01-12T09:06:28.272Z,0.70
2023-01-12T09:07:28.273Z,0.70
2023-01-12T09:08:28.267Z,0.80
2023-01-12T09:09:28.261Z,0.70
2023-01-12T09:10:28.278Z,0.90
2023-01-12T09:11:28.247Z,0.80
2023-01-12T09:12:28.205Z,0.90
2023-01-12T09:13:28.217Z,0.70
2023-01-12T09:14:28.252Z,0.70
2023-01-12T09:15:28.179Z,0.90
2023-01-12T09:16:28.217Z,1.00
2023-01-12T09:17:28.176Z,0.70
2023-01-12T09:18:28.271Z,0.80
2023-01-12T09:19:28.167Z,1.20
2023-01-12T09:20:28.166Z,1.20
2023-01-12T09:21:28.129Z,0.90
2023-01-12T09:22:28.101Z,0.90
2023-01-12T09:23:28.112Z,1.00
2023-01-12T09:24:28.074Z,0.80
2023-01-12T09:25:28.076Z,0.60
2023-01-12T09:26:28.066Z,0.70
2023-01-12T09:27:28.062Z,0.80
2023-01-12T09:28:28.068Z,0.70
2023-01-12T09:29:28.037Z,1.00
2023-01-12T09:30:28.018Z,0.90
2023-01-12T09:31:28.070Z,1.00
2023-01-12T09:32:36.132Z,0.80
2023-01-12T09:33:28.012Z,0.90
2023-01-12T09:34:28.031Z,0.70
2023-01-12T09:35:28.011Z,0.60
2023-01-12T09:36:27.959Z,0.80
2023-01-12T09:37:28.433Z,0.80
2023-01-12T09:38:28.662Z,1.20
2023-01-12T09:39:28.594Z,1.10
2023-01-12T09:40:27.925Z,0.70
2023-01-12T09:41:27.906Z,1.00
2023-01-12T09:42:27.921Z,0.70
2023-01-12T09:43:27.878Z,1.00
2023-01-12T09:44:27.884Z,1.10
2023-01-12T09:45:28.000Z,1.20
2023-01-12T09:46:27.851Z,0.90
2023-01-12T09:47:27.854Z,0.80
2023-01-12T09:48:27.883Z,0.90
2023-01-12T09:49:27.858Z,0.90
2023-01-12T09:50:27.828Z,1.00
2023-01-12T09:51:27.822Z,1.10
2023-01-12T09:52:27.827Z,0.80
2023-01-12T09:53:27.852Z,0.80
2023-01-12T09:54:27.768Z,1.00
2023-01-12T09:55:27.784Z,0.60
2023-01-12T09:56:27.771Z,0.90
2023-01-12T09:57:29.034Z,0.80
2023-01-12T09:58:27.825Z,0.90
2023-01-12T09:59:27.751Z,1.50
2023-01-12T10:00:27.743Z,0.50
2023-01-12T10:01:30.211Z,1.00
2023-01-12T10:02:27.896Z,0.90
2023-01-12T10:03:27.910Z,0.90
2023-01-12T10:04:27.691Z,0.80
2023-01-12T10:05:38.532Z,0.70
2023-01-12T10:06:27.665Z,0.80
2023-01-12T10:07:27.640Z,0.60
2023-01-12T10:08:27.649Z,1.10
2023-01-12T10:09:27.612Z,0.90
2023-01-12T10:10:27.620Z,0.90
2023-01-12T10:11:27.592Z,1.00
2023-01-12T10:12:27.591Z,0.70
2023-01-12T10:13:27.578Z,1.00
2023-01-12T10:14:27.580Z,0.90
2023-01-12T10:15:27.631Z,0.70
2023-01-12T10:16:27.676Z,1.00
2023-01-12T10:17:27.886Z,0.70
2023-01-12T10:18:27.554Z,0.80
2023-01-12T10:19:27.518Z,0.80
2023-01-12T10:20:27.596Z,0.90
2023-01-12T10:21:27.497Z,0.80
2023-01-12T10:22:27.511Z,1.10
2023-01-12T10:23:27.473Z,0.80
2023-01-12T10:24:27.506Z,1.00
2023-01-12T10:25:27.465Z,0.90
2023-01-12T10:26:27.491Z,0.80
2023-01-12T10:27:27.471Z,1.10
2023-01-12T10:28:27.442Z,0.90
2023-01-12T10:29:27.416Z,0.80
2023-01-12T10:30:27.485Z,0.60
2023-01-12T10:31:27.458Z,0.90
2023-01-12T10:32:31.333Z,0.90
2023-01-12T10:33:27.393Z,0.70
2023-01-12T10:34:27.401Z,0.80
2023-01-12T10:35:27.386Z,0.80
2023-01-12T10:36:27.340Z,0.70
2023-01-12T10:37:27.315Z,1.00
2023-01-12T10:38:27.327Z,0.90
2023-01-12T10:39:27.348Z,1.00
2023-01-12T10:40:27.311Z,1.00
2023-01-12T10:41:27.283Z,1.00
2023-01-12T10:42:27.307Z,0.70
2023-01-12T10:43:27.265Z,1.40
2023-01-12T10:44:27.280Z,0.70
2023-01-12T10:45:27.273Z,1.10
2023-01-12T10:46:27.270Z,1.20
2023-01-12T10:47:27.233Z,0.80
2023-01-12T10:48:27.321Z,0.80
2023-01-12T10:49:27.196Z,1.00
2023-01-12T10:50:27.207Z,0.70
2023-01-12T10:51:27.214Z,0.70
2023-01-12T10:52:27.174Z,1.00
2023-01-12T10:53:27.188Z,0.70
2023-01-12T10:54:27.151Z,0.80
2023-01-12T10:55:27.183Z,0.80
2023-01-12T10:56:27.189Z,0.70
2023-01-12T10:57:27.175Z,1.00
2023-01-12T10:58:27.113Z,0.60
2023-01-12T10:59:27.107Z,1.10
2023-01-12T11:00:27.122Z,0.70
2023-01-12T11:01:27.193Z,1.10
2023-01-12T11:02:27.172Z,0.60
2023-01-12T11:03:27.083Z,0.70
2023-01-12T11:04:27.063Z,0.70
2023-01-12T11:05:27.028Z,0.90
2023-01-12T11:06:27.106Z,0.70
2023-01-12T11:07:27.059Z,0.90
2023-01-12T11:08:27.045Z,0.80
2023-01-12T11:09:27.007Z,0.80
2023-01-12T11:10:27.004Z,0.90
2023-01-12T11:11:26.965Z,0.90
2023-01-12T11:12:29.435Z,0.70
2023-01-12T11:13:26.980Z,0.90
2023-01-12T11:14:26.952Z,0.80
2023-01-12T11:15:26.941Z,0.70
2023-01-12T11:16:26.973Z,0.90
2023-01-12T11:17:26.933Z,1.00
2023-01-12T11:18:26.940Z,0.90
2023-01-12T11:19:26.886Z,1.10
2023-01-12T11:20:27.010Z,0.90
2023-01-12T11:21:26.883Z,0.90
2023-01-12T11:22:26.886Z,0.80
2023-01-12T11:23:26.958Z,0.90
2023-01-12T11:24:26.843Z,0.90
2023-01-12T11:25:26.908Z,0.70
2023-01-12T11:26:26.829Z,0.90
2023-01-12T11:27:26.823Z,0.90
2023-01-12T11:28:26.803Z,0.80
2023-01-12T11:29:27.360Z,1.00
2023-01-12T11:30:26.810Z,0.60
2023-01-12T11:31:26.769Z,1.00
2023-01-12T11:32:26.846Z,0.80
2023-01-12T11:33:26.774Z,0.90
2023-01-12T11:34:26.739Z,0.90
2023-01-12T11:35:26.756Z,0.90
2023-01-12T11:36:26.757Z,1.40
2023-01-12T11:37:26.725Z,0.70
2023-01-12T11:38:26.717Z,0.90
2023-01-12T11:39:26.681Z,1.10
2023-01-12T11:40:26.703Z,0.90
2023-01-12T11:41:26.673Z,1.00
2023-01-12T11:42:26.687Z,0.70
2023-01-12T11:43:26.668Z,0.90
2023-01-12T11:44:26.683Z,0.60
2023-01-12T11:45:26.715Z,0.70
2023-01-12T11:46:26.828Z,0.80
2023-01-12T11:47:26.647Z,0.90
2023-01-12T11:48:26.645Z,0.70
2023-01-12T11:49:26.588Z,0.90
2023-01-12T11:50:26.600Z,0.80
2023-01-12T11:51:26.581Z,0.70
2023-01-12T11:52:26.563Z,1.50
2023-01-12T11:53:26.611Z,0.80
2023-01-12T11:54:26.526Z,1.00
2023-01-12T11:55:26.509Z,0.70
2023-01-12T11:56:26.574Z,0.80
2023-01-12T11:57:26.549Z,0.90
2023-01-12T11:58:26.517Z,0.80
2023-01-12T11:59:26.529Z,1.00
2023-01-12T12:00:26.505Z,0.80
2023-01-12T12:01:26.501Z,1.00
2023-01-12T12:02:26.860Z,0.90
2023-01-12T12:03:27.655Z,1.10
2023-01-12T12:04:26.610Z,0.80
2023-01-12T12:05:26.593Z,0.90
2023-01-12T12:06:26.423Z,0.70
2023-01-12T12:07:26.387Z,0.80
2023-01-12T12:08:26.392Z,0.60
2023-01-12T12:09:26.383Z,1.20
2023-01-12T12:10:26.397Z,0.90
2023-01-12T12:11:26.387Z,0.80
2023-01-12T12:12:26.644Z,0.90
2023-01-12T12:13:26.332Z,1.00
2023-01-12T12:14:26.348Z,0.90
2023-01-12T12:15:26.321Z,0.90
2023-01-12T12:16:26.300Z,0.50
2023-01-12T12:17:26.357Z,0.90
2023-01-12T12:18:26.302Z,0.70
2023-01-12T12:19:26.263Z,0.90
2023-01-12T12:20:26.879Z,0.80
2023-01-12T12:21:33.144Z,0.80
2023-01-12T12:22:26.971Z,1.00
2023-01-12T12:23:26.229Z,0.70
2023-01-12T12:24:26.248Z,0.80
2023-01-12T12:25:26.230Z,0.70
2023-01-12T12:26:26.221Z,0.60
2023-01-12T12:27:26.186Z,1.00
2023-01-12T12:28:26.170Z,0.70
2023-01-12T12:29:26.175Z,0.80
2023-01-12T12:30:26.186Z,0.70
2023-01-12T12:31:26.188Z,0.70
2023-01-12T12:32:26.147Z,0.90
2023-01-12T12:33:26.156Z,0.80
2023-01-12T12:34:26.130Z,0.70
2023-01-12T12:35:26.104Z,0.80
2023-01-12T12:36:26.106Z,1.00
2023-01-12T12:37:26.095Z,0.80
2023-01-12T12:38:26.093Z,0.60
2023-01-12T12:39:26.103Z,0.50
2023-01-12T12:40:26.062Z,0.80
2023-01-12T12:41:26.050Z,0.70
2023-01-12T12:42:26.047Z,0.70
2023-01-12T12:43:26.052Z,0.70
2023-01-12T12:44:26.039Z,0.70
2023-01-12T12:45:26.019Z,0.60
2023-01-12T12:46:26.026Z,0.70
2023-01-12T12:47:26.057Z,0.90
2023-01-12T12:48:25.977Z,0.70
2023-01-12T12:49:25.967Z,0.60
2023-01-12T12:50:25.957Z,0.60
2023-01-12T12:51:25.954Z,0.70
2023-01-12T12:52:25.928Z,0.80
2023-01-12T12:53:25.937Z,0.80
2023-01-12T12:54:25.936Z,0.60
2023-01-12T12:55:25.961Z,1.00
2023-01-12T12:56:25.888Z,0.40
2023-01-12T12:57:25.884Z,0.80
2023-01-12T12:58:25.909Z,0.60
2023-01-12T12:59:25.854Z,0.60
2023-01-12T13:00:25.878Z,0.60
2023-01-12T13:01:25.975Z,0.80
2023-01-12T13:02:26.018Z,0.70
2023-01-12T13:03:25.881Z,0.60
2023-01-12T13:04:25.803Z,0.50
2023-01-12T13:05:25.803Z,0.70
2023-01-12T13:06:25.797Z,0.40
2023-01-12T13:07:25.765Z,0.50
2023-01-12T13:08:25.771Z,0.60
2023-01-12T13:09:25.753Z,0.60
2023-01-12T13:10:25.754Z,0.60
2023-01-12T13:11:25.747Z,0.60
2023-01-12T13:12:25.727Z,0.70
2023-01-12T13:13:25.703Z,0.60
2023-01-12T13:14:25.763Z,0.70
2023-01-12T13:15:25.784Z,0.50
2023-01-12T13:16:25.671Z,0.60
2023-01-12T13:17:25.684Z,0.40
2023-01-12T13:18:25.667Z,0.80